sensor_id;sensor_type;location;lat;lon;timestamp;P1;durP1;ratioP1;P2;durP2;ratioP2
15486;SDS011;7845;53.698;10.078;2023-01-19T00:00:33;16.40;;;10.43;;
15486;SDS011;7845;53.698;10.078;2023-01-19T00:02:59;17.43;;;10.37;;
15486;SDS011;7845;53.698;10.078;2023-01-19T00:05:24;17.23;;;11.03;;
15486;SDS011;7845;53.698;10.078;2023-01-19T00:07:50;15.17;;;9.83;;
15486;SDS011;7845;53.698;10.078;2023-01-19T00:10:15;14.67;;;10.20;;
15486;SDS011;7845;53.698;10.078;2023-01-19T00:12:42;19.63;;;9.20;;
15486;SDS011;7845;53.698;10.078;2023-01-19T00:15:09;19.77;;;10.20;;
15486;SDS011;7845;53.698;10.078;2023-01-19T00:17:34;15.77;;;9.17;;
15486;SDS011;7845;53.698;10.078;2023-01-19T00:20:00;15.50;;;9.97;;
15486;SDS011;7845;53.698;10.078;2023-01-19T00:22:25;20.07;;;10.67;;
15486;SDS011;7845;53.698;10.078;2023-01-19T00:24:52;16.30;;;9.90;;
15486;SDS011;7845;53.698;10.078;2023-01-19T00:27:17;17.20;;;10.40;;
15486;SDS011;7845;53.698;10.078;2023-01-19T00:29:43;14.30;;;9.67;;
15486;SDS011;7845;53.698;10.078;2023-01-19T00:32:08;14.60;;;8.90;;
15486;SDS011;7845;53.698;10.078;2023-01-19T00:34:33;17.30;;;9.40;;
15486;SDS011;7845;53.698;10.078;2023-01-19T00:37:04;15.60;;;9.40;;
15486;SDS011;7845;53.698;10.078;2023-01-19T00:39:35;14.57;;;9.40;;
15486;SDS011;7845;53.698;10.078;2023-01-19T00:42:01;18.00;;;10.67;;
15486;SDS011;7845;53.698;10.078;2023-01-19T00:44:47;13.23;;;9.13;;
15486;SDS011;7845;53.698;10.078;2023-01-19T00:47:12;14.97;;;9.77;;
15486;SDS011;7845;53.698;10.078;2023-01-19T00:49:37;15.27;;;10.13;;
15486;SDS011;7845;53.698;10.078;2023-01-19T00:52:03;14.80;;;10.40;;
15486;SDS011;7845;53.698;10.078;2023-01-19T00:54:28;16.03;;;10.63;;
15486;SDS011;7845;53.698;10.078;2023-01-19T00:56:53;16.17;;;10.37;;
15486;SDS011;7845;53.698;10.078;2023-01-19T00:59:19;15.00;;;9.70;;
15486;SDS011;7845;53.698;10.078;2023-01-19T01:01:44;17.07;;;10.43;;
15486;SDS011;7845;53.698;10.078;2023-01-19T01:04:09;15.93;;;10.03;;
15486;SDS011;7845;53.698;10.078;2023-01-19T01:06:37;13.73;;;10.10;;
15486;SDS011;7845;53.698;10.078;2023-01-19T01:09:06;16.30;;;9.40;;
15486;SDS011;7845;53.698;10.078;2023-01-19T01:11:36;17.17;;;9.67;;
15486;SDS011;7845;53.698;10.078;2023-01-19T01:14:06;17.13;;;10.03;;
15486;SDS011;7845;53.698;10.078;2023-01-19T01:16:32;14.37;;;9.33;;
15486;SDS011;7845;53.698;10.078;2023-01-19T01:18:57;13.63;;;8.93;;
15486;SDS011;7845;53.698;10.078;2023-01-19T01:21:23;15.10;;;10.67;;
15486;SDS011;7845;53.698;10.078;2023-01-19T01:23:49;14.83;;;9.10;;
15486;SDS011;7845;53.698;10.078;2023-01-19T01:26:14;14.70;;;9.83;;
15486;SDS011;7845;53.698;10.078;2023-01-19T01:28:40;14.93;;;9.90;;
15486;SDS011;7845;53.698;10.078;2023-01-19T01:31:05;14.60;;;10.00;;
15486;SDS011;7845;53.698;10.078;2023-01-19T01:33:30;16.07;;;9.30;;
15486;SDS011;7845;53.698;10.078;2023-01-19T01:35:56;15.20;;;9.23;;
15486;SDS011;7845;53.698;10.078;2023-01-19T01:38:21;17.07;;;9.50;;
15486;SDS011;7845;53.698;10.078;2023-01-19T01:40:47;16.63;;;9.77;;
15486;SDS011;7845;53.698;10.078;2023-01-19T01:43:13;20.37;;;10.60;;
15486;SDS011;7845;53.698;10.078;2023-01-19T01:45:40;15.30;;;9.87;;
15486;SDS011;7845;53.698;10.078;2023-01-19T01:48:14;16.37;;;9.30;;
15486;SDS011;7845;53.698;10.078;2023-01-19T01:50:53;16.00;;;10.57;;
15486;SDS011;7845;53.698;10.078;2023-01-19T01:53:42;15.27;;;10.20;;
15486;SDS011;7845;53.698;10.078;2023-01-19T01:56:14;15.50;;;10.77;;
15486;SDS011;7845;53.698;10.078;2023-01-19T01:58:43;15.50;;;9.93;;
15486;SDS011;7845;53.698;10.078;2023-01-19T02:01:09;19.10;;;10.77;;
15486;SDS011;7845;53.698;10.078;2023-01-19T02:03:56;16.47;;;11.17;;
15486;SDS011;7845;53.698;10.078;2023-01-19T02:06:23;15.80;;;10.40;;
15486;SDS011;7845;53.698;10.078;2023-01-19T02:08:52;16.00;;;10.13;;
15486;SDS011;7845;53.698;10.078;2023-01-19T02:11:42;14.90;;;8.97;;
15486;SDS011;7845;53.698;10.078;2023-01-19T02:14:26;16.37;;;10.33;;
15486;SDS011;7845;53.698;10.078;2023-01-19T02:16:53;14.53;;;9.23;;
15486;SDS011;7845;53.698;10.078;2023-01-19T02:19:27;14.33;;;9.67;;
15486;SDS011;7845;53.698;10.078;2023-01-19T02:22:00;14.20;;;10.20;;
15486;SDS011;7845;53.698;10.078;2023-01-19T02:24:35;13.43;;;8.87;;
15486;SDS011;7845;53.698;10.078;2023-01-19T02:27:04;14.83;;;9.43;;
15486;SDS011;7845;53.698;10.078;2023-01-19T02:29:31;16.17;;;9.80;;
15486;SDS011;7845;53.698;10.078;2023-01-19T02:32:11;14.40;;;10.10;;
15486;SDS011;7845;53.698;10.078;2023-01-19T02:34:54;14.90;;;9.97;;
15486;SDS011;7845;53.698;10.078;2023-01-19T02:37:20;14.20;;;9.43;;
15486;SDS011;7845;53.698;10.078;2023-01-19T02:39:54;15.27;;;9.67;;
15486;SDS011;7845;53.698;10.078;2023-01-19T02:44:57;15.60;;;10.23;;
15486;SDS011;7845;53.698;10.078;2023-01-19T02:47:22;14.30;;;8.80;;
15486;SDS011;7845;53.698;10.078;2023-01-19T02:49:55;16.87;;;10.00;;
15486;SDS011;7845;53.698;10.078;2023-01-19T02:52:22;14.67;;;9.23;;
15486;SDS011;7845;53.698;10.078;2023-01-19T03:00:18;13.90;;;9.63;;
15486;SDS011;7845;53.698;10.078;2023-01-19T03:05:48;13.83;;;9.23;;
15486;SDS011;7845;53.698;10.078;2023-01-19T03:11:07;16.20;;;9.50;;
15486;SDS011;7845;53.698;10.078;2023-01-19T03:13:41;15.30;;;9.77;;
15486;SDS011;7845;53.698;10.078;2023-01-19T03:18:36;19.87;;;10.20;;
15486;SDS011;7845;53.698;10.078;2023-01-19T03:21:06;13.90;;;9.20;;
15486;SDS011;7845;53.698;10.078;2023-01-19T03:23:35;12.07;;;8.77;;
15486;SDS011;7845;53.698;10.078;2023-01-19T03:26:03;14.53;;;10.37;;
15486;SDS011;7845;53.698;10.078;2023-01-19T03:28:31;12.93;;;9.40;;
15486;SDS011;7845;53.698;10.078;2023-01-19T03:31:02;15.20;;;9.47;;
15486;SDS011;7845;53.698;10.078;2023-01-19T03:33:32;16.07;;;10.47;;
15486;SDS011;7845;53.698;10.078;2023-01-19T03:36:03;15.03;;;10.70;;
15486;SDS011;7845;53.698;10.078;2023-01-19T03:38:34;15.47;;;10.13;;
15486;SDS011;7845;53.698;10.078;2023-01-19T03:41:03;14.07;;;9.87;;
15486;SDS011;7845;53.698;10.078;2023-01-19T03:43:32;16.50;;;10.20;;
15486;SDS011;7845;53.698;10.078;2023-01-19T03:46:01;13.43;;;9.33;;
15486;SDS011;7845;53.698;10.078;2023-01-19T03:48:30;14.97;;;10.03;;
15486;SDS011;7845;53.698;10.078;2023-01-19T03:51:06;18.07;;;9.87;;
15486;SDS011;7845;53.698;10.078;2023-01-19T03:53:34;17.43;;;9.97;;
15486;SDS011;7845;53.698;10.078;2023-01-19T03:55:59;17.47;;;10.90;;
15486;SDS011;7845;53.698;10.078;2023-01-19T03:58:24;17.33;;;10.73;;
15486;SDS011;7845;53.698;10.078;2023-01-19T04:00:50;14.90;;;9.50;;
15486;SDS011;7845;53.698;10.078;2023-01-19T04:03:16;14.13;;;10.63;;
15486;SDS011;7845;53.698;10.078;2023-01-19T04:05:43;16.37;;;11.07;;
15486;SDS011;7845;53.698;10.078;2023-01-19T04:08:09;16.00;;;10.30;;
15486;SDS011;7845;53.698;10.078;2023-01-19T04:10:35;14.63;;;10.27;;
15486;SDS011;7845;53.698;10.078;2023-01-19T04:13:01;15.07;;;10.50;;
15486;SDS011;7845;53.698;10.078;2023-01-19T04:15:28;18.83;;;11.33;;
15486;SDS011;7845;53.698;10.078;2023-01-19T04:17:56;14.63;;;9.73;;
15486;SDS011;7845;53.698;10.078;2023-01-19T04:20:22;16.80;;;10.37;;
15486;SDS011;7845;53.698;10.078;2023-01-19T04:22:47;15.30;;;10.33;;
15486;SDS011;7845;53.698;10.078;2023-01-19T04:25:14;14.77;;;10.60;;
15486;SDS011;7845;53.698;10.078;2023-01-19T04:27:40;16.80;;;10.67;;
15486;SDS011;7845;53.698;10.078;2023-01-19T04:30:05;16.10;;;10.43;;
15486;SDS011;7845;53.698;10.078;2023-01-19T04:32:31;16.00;;;10.07;;
15486;SDS011;7845;53.698;10.078;2023-01-19T04:34:57;14.63;;;10.27;;
15486;SDS011;7845;53.698;10.078;2023-01-19T04:37:23;15.83;;;10.63;;
15486;SDS011;7845;53.698;10.078;2023-01-19T04:39:48;14.90;;;10.67;;
15486;SDS011;7845;53.698;10.078;2023-01-19T04:42:13;15.77;;;11.00;;
15486;SDS011;7845;53.698;10.078;2023-01-19T04:44:39;14.87;;;10.77;;
15486;SDS011;7845;53.698;10.078;2023-01-19T04:47:04;17.90;;;11.40;;
15486;SDS011;7845;53.698;10.078;2023-01-19T04:49:29;18.17;;;11.80;;
15486;SDS011;7845;53.698;10.078;2023-01-19T04:51:55;15.87;;;11.10;;
15486;SDS011;7845;53.698;10.078;2023-01-19T04:54:38;16.57;;;10.37;;
15486;SDS011;7845;53.698;10.078;2023-01-19T04:57:03;20.43;;;11.17;;
15486;SDS011;7845;53.698;10.078;2023-01-19T04:59:29;17.90;;;11.70;;
15486;SDS011;7845;53.698;10.078;2023-01-19T05:02:00;19.93;;;11.33;;
15486;SDS011;7845;53.698;10.078;2023-01-19T05:04:28;17.43;;;11.40;;
15486;SDS011;7845;53.698;10.078;2023-01-19T05:06:54;18.27;;;11.57;;
15486;SDS011;7845;53.698;10.078;2023-01-19T05:09:19;15.43;;;10.83;;
15486;SDS011;7845;53.698;10.078;2023-01-19T05:11:45;18.10;;;12.03;;
15486;SDS011;7845;53.698;10.078;2023-01-19T05:14:13;18.07;;;12.63;;
15486;SDS011;7845;53.698;10.078;2023-01-19T05:16:39;17.63;;;12.20;;
15486;SDS011;7845;53.698;10.078;2023-01-19T05:19:04;16.57;;;11.80;;
15486;SDS011;7845;53.698;10.078;2023-01-19T05:21:29;17.20;;;11.67;;
15486;SDS011;7845;53.698;10.078;2023-01-19T05:23:55;19.63;;;12.37;;
15486;SDS011;7845;53.698;10.078;2023-01-19T05:26:20;17.80;;;10.80;;
15486;SDS011;7845;53.698;10.078;2023-01-19T05:28:45;19.70;;;12.67;;
15486;SDS011;7845;53.698;10.078;2023-01-19T05:31:11;18.53;;;12.10;;
15486;SDS011;7845;53.698;10.078;2023-01-19T05:33:36;17.97;;;11.60;;
15486;SDS011;7845;53.698;10.078;2023-01-19T05:36:01;17.63;;;11.50;;
15486;SDS011;7845;53.698;10.078;2023-01-19T05:38:28;15.80;;;11.37;;
15486;SDS011;7845;53.698;10.078;2023-01-19T05:40:56;16.50;;;11.63;;
15486;SDS011;7845;53.698;10.078;2023-01-19T05:43:22;19.33;;;11.50;;
15486;SDS011;7845;53.698;10.078;2023-01-19T05:45:49;16.37;;;10.73;;
15486;SDS011;7845;53.698;10.078;2023-01-19T05:48:15;19.30;;;12.43;;
15486;SDS011;7845;53.698;10.078;2023-01-19T05:50:40;19.33;;;12.07;;
15486;SDS011;7845;53.698;10.078;2023-01-19T05:53:05;15.90;;;11.63;;
15486;SDS011;7845;53.698;10.078;2023-01-19T05:55:31;17.50;;;12.10;;
15486;SDS011;7845;53.698;10.078;2023-01-19T05:57:56;17.27;;;11.90;;
15486;SDS011;7845;53.698;10.078;2023-01-19T06:00:22;20.43;;;13.00;;
15486;SDS011;7845;53.698;10.078;2023-01-19T06:02:48;20.80;;;12.40;;
15486;SDS011;7845;53.698;10.078;2023-01-19T06:05:14;15.47;;;12.00;;
15486;SDS011;7845;53.698;10.078;2023-01-19T06:07:40;17.70;;;12.20;;
15486;SDS011;7845;53.698;10.078;2023-01-19T06:10:08;20.00;;;12.43;;
15486;SDS011;7845;53.698;10.078;2023-01-19T06:12:35;19.13;;;12.80;;
15486;SDS011;7845;53.698;10.078;2023-01-19T06:15:01;18.43;;;12.23;;
15486;SDS011;7845;53.698;10.078;2023-01-19T06:17:26;18.93;;;13.57;;
15486;SDS011;7845;53.698;10.078;2023-01-19T06:19:59;18.83;;;13.00;;
15486;SDS011;7845;53.698;10.078;2023-01-19T06:22:24;17.67;;;12.70;;
15486;SDS011;7845;53.698;10.078;2023-01-19T06:24:49;19.70;;;12.97;;
15486;SDS011;7845;53.698;10.078;2023-01-19T06:27:15;19.53;;;12.50;;
15486;SDS011;7845;53.698;10.078;2023-01-19T06:29:40;18.50;;;12.70;;
15486;SDS011;7845;53.698;10.078;2023-01-19T06:32:06;16.13;;;12.20;;
15486;SDS011;7845;53.698;10.078;2023-01-19T06:34:31;20.50;;;12.70;;
15486;SDS011;7845;53.698;10.078;2023-01-19T06:36:56;20.30;;;13.80;;
15486;SDS011;7845;53.698;10.078;2023-01-19T06:39:22;18.60;;;12.80;;
15486;SDS011;7845;53.698;10.078;2023-01-19T06:41:48;22.10;;;14.70;;
15486;SDS011;7845;53.698;10.078;2023-01-19T06:44:14;21.87;;;13.07;;
15486;SDS011;7845;53.698;10.078;2023-01-19T06:46:39;21.93;;;12.33;;
15486;SDS011;7845;53.698;10.078;2023-01-19T06:49:04;15.33;;;11.07;;
15486;SDS011;7845;53.698;10.078;2023-01-19T06:51:30;16.87;;;11.23;;
15486;SDS011;7845;53.698;10.078;2023-01-19T06:53:55;20.30;;;13.50;;
15486;SDS011;7845;53.698;10.078;2023-01-19T06:56:21;17.80;;;12.03;;
15486;SDS011;7845;53.698;10.078;2023-01-19T06:58:47;17.27;;;12.13;;
15486;SDS011;7845;53.698;10.078;2023-01-19T07:01:12;18.30;;;12.53;;
15486;SDS011;7845;53.698;10.078;2023-01-19T07:03:38;18.13;;;11.93;;
15486;SDS011;7845;53.698;10.078;2023-01-19T07:06:03;15.80;;;11.10;;
15486;SDS011;7845;53.698;10.078;2023-01-19T07:08:33;17.87;;;12.20;;
15486;SDS011;7845;53.698;10.078;2023-01-19T07:11:04;16.80;;;12.30;;
15486;SDS011;7845;53.698;10.078;2023-01-19T07:13:34;15.47;;;10.60;;
15486;SDS011;7845;53.698;10.078;2023-01-19T07:16:07;15.77;;;11.57;;
15486;SDS011;7845;53.698;10.078;2023-01-19T07:18:34;16.50;;;11.37;;
15486;SDS011;7845;53.698;10.078;2023-01-19T07:21:02;17.80;;;12.37;;
15486;SDS011;7845;53.698;10.078;2023-01-19T07:23:28;17.03;;;11.57;;
15486;SDS011;7845;53.698;10.078;2023-01-19T07:25:58;15.13;;;10.70;;
15486;SDS011;7845;53.698;10.078;2023-01-19T07:28:27;16.47;;;11.70;;
15486;SDS011;7845;53.698;10.078;2023-01-19T07:30:55;18.70;;;12.93;;
15486;SDS011;7845;53.698;10.078;2023-01-19T07:33:20;18.30;;;11.80;;
15486;SDS011;7845;53.698;10.078;2023-01-19T07:35:49;16.00;;;11.30;;
15486;SDS011;7845;53.698;10.078;2023-01-19T07:38:15;17.93;;;12.10;;
15486;SDS011;7845;53.698;10.078;2023-01-19T07:40:41;18.53;;;12.93;;
15486;SDS011;7845;53.698;10.078;2023-01-19T07:43:07;19.30;;;12.37;;
15486;SDS011;7845;53.698;10.078;2023-01-19T07:45:33;16.60;;;12.10;;
15486;SDS011;7845;53.698;10.078;2023-01-19T07:47:59;20.90;;;13.80;;
15486;SDS011;7845;53.698;10.078;2023-01-19T07:50:25;18.90;;;12.80;;
15486;SDS011;7845;53.698;10.078;2023-01-19T07:52:51;22.10;;;12.27;;
15486;SDS011;7845;53.698;10.078;2023-01-19T07:55:18;19.07;;;12.30;;
15486;SDS011;7845;53.698;10.078;2023-01-19T07:57:44;18.53;;;13.17;;
15486;SDS011;7845;53.698;10.078;2023-01-19T08:00:12;19.83;;;13.80;;
15486;SDS011;7845;53.698;10.078;2023-01-19T08:02:38;16.00;;;11.57;;
15486;SDS011;7845;53.698;10.078;2023-01-19T08:05:05;19.53;;;12.60;;
15486;SDS011;7845;53.698;10.078;2023-01-19T08:07:40;18.37;;;13.03;;
15486;SDS011;7845;53.698;10.078;2023-01-19T08:10:06;18.40;;;12.80;;
15486;SDS011;7845;53.698;10.078;2023-01-19T08:12:35;18.17;;;12.70;;
15486;SDS011;7845;53.698;10.078;2023-01-19T08:15:00;22.27;;;13.67;;
15486;SDS011;7845;53.698;10.078;2023-01-19T08:17:25;21.60;;;13.83;;
15486;SDS011;7845;53.698;10.078;2023-01-19T08:19:50;20.23;;;13.20;;
15486;SDS011;7845;53.698;10.078;2023-01-19T08:22:16;23.20;;;14.73;;
15486;SDS011;7845;53.698;10.078;2023-01-19T08:24:41;19.63;;;12.57;;
15486;SDS011;7845;53.698;10.078;2023-01-19T08:27:06;16.97;;;12.73;;
15486;SDS011;7845;53.698;10.078;2023-01-19T08:29:33;18.13;;;13.10;;
15486;SDS011;7845;53.698;10.078;2023-01-19T08:31:59;20.60;;;15.20;;
15486;SDS011;7845;53.698;10.078;2023-01-19T08:34:26;18.03;;;12.63;;
15486;SDS011;7845;53.698;10.078;2023-01-19T08:36:54;23.40;;;13.80;;
15486;SDS011;7845;53.698;10.078;2023-01-19T08:39:19;18.60;;;13.00;;
15486;SDS011;7845;53.698;10.078;2023-01-19T08:41:48;16.60;;;11.70;;
15486;SDS011;7845;53.698;10.078;2023-01-19T08:44:16;15.50;;;11.30;;
15486;SDS011;7845;53.698;10.078;2023-01-19T08:46:42;18.40;;;12.63;;
15486;SDS011;7845;53.698;10.078;2023-01-19T08:49:08;17.17;;;11.17;;
15486;SDS011;7845;53.698;10.078;2023-01-19T08:51:33;19.93;;;12.63;;
15486;SDS011;7845;53.698;10.078;2023-01-19T08:53:59;18.70;;;12.83;;
15486;SDS011;7845;53.698;10.078;2023-01-19T08:56:24;19.47;;;12.03;;
15486;SDS011;7845;53.698;10.078;2023-01-19T08:58:50;19.00;;;12.30;;
15486;SDS011;7845;53.698;10.078;2023-01-19T09:01:15;20.63;;;12.23;;
15486;SDS011;7845;53.698;10.078;2023-01-19T09:03:43;15.90;;;10.70;;
15486;SDS011;7845;53.698;10.078;2023-01-19T09:06:09;20.30;;;11.60;;
15486;SDS011;7845;53.698;10.078;2023-01-19T09:08:37;18.30;;;12.10;;
15486;SDS011;7845;53.698;10.078;2023-01-19T09:11:02;18.10;;;11.00;;
15486;SDS011;7845;53.698;10.078;2023-01-19T09:13:29;18.50;;;11.40;;
15486;SDS011;7845;53.698;10.078;2023-01-19T09:15:56;16.40;;;11.37;;
15486;SDS011;7845;53.698;10.078;2023-01-19T09:18:21;19.10;;;11.80;;
15486;SDS011;7845;53.698;10.078;2023-01-19T09:20:50;17.63;;;10.80;;
15486;SDS011;7845;53.698;10.078;2023-01-19T09:23:16;15.90;;;11.40;;
15486;SDS011;7845;53.698;10.078;2023-01-19T09:25:44;17.83;;;11.13;;
15486;SDS011;7845;53.698;10.078;2023-01-19T09:28:16;17.00;;;11.20;;
15486;SDS011;7845;53.698;10.078;2023-01-19T09:30:45;16.40;;;10.93;;
15486;SDS011;7845;53.698;10.078;2023-01-19T09:33:12;18.27;;;11.83;;
15486;SDS011;7845;53.698;10.078;2023-01-19T09:35:39;18.60;;;12.17;;
15486;SDS011;7845;53.698;10.078;2023-01-19T09:38:05;17.37;;;12.17;;
15486;SDS011;7845;53.698;10.078;2023-01-19T09:40:42;19.00;;;12.63;;
15486;SDS011;7845;53.698;10.078;2023-01-19T09:46:01;16.13;;;11.40;;
15486;SDS011;7845;53.698;10.078;2023-01-19T09:54:15;18.43;;;11.53;;
15486;SDS011;7845;53.698;10.078;2023-01-19T09:57:04;16.33;;;11.60;;
15486;SDS011;7845;53.698;10.078;2023-01-19T09:59:38;17.57;;;11.20;;
15486;SDS011;7845;53.698;10.078;2023-01-19T10:02:20;19.37;;;11.70;;
15486;SDS011;7845;53.698;10.078;2023-01-19T10:10:51;20.40;;;12.27;;
15486;SDS011;7845;53.698;10.078;2023-01-19T10:21:15;17.70;;;12.57;;
15486;SDS011;7845;53.698;10.078;2023-01-19T10:23:51;16.80;;;11.80;;
15486;SDS011;7845;53.698;10.078;2023-01-19T10:26:23;18.70;;;12.53;;
15486;SDS011;7845;53.698;10.078;2023-01-19T10:28:51;21.00;;;11.90;;
15486;SDS011;7845;53.698;10.078;2023-01-19T10:31:22;16.40;;;11.50;;
15486;SDS011;7845;53.698;10.078;2023-01-19T10:33:51;16.33;;;11.20;;
15486;SDS011;7845;53.698;10.078;2023-01-19T10:36:27;16.83;;;11.33;;
15486;SDS011;7845;53.698;10.078;2023-01-19T10:38:58;17.53;;;11.77;;
15486;SDS011;7845;53.698;10.078;2023-01-19T10:41:40;16.97;;;11.73;;
15486;SDS011;7845;53.698;10.078;2023-01-19T10:44:07;16.33;;;11.23;;
15486;SDS011;7845;53.698;10.078;2023-01-19T10:46:41;16.97;;;10.80;;
15486;SDS011;7845;53.698;10.078;2023-01-19T10:49:26;15.50;;;10.53;;
15486;SDS011;7845;53.698;10.078;2023-01-19T10:51:55;18.83;;;10.70;;
15486;SDS011;7845;53.698;10.078;2023-01-19T10:54:28;15.33;;;9.93;;
15486;SDS011;7845;53.698;10.078;2023-01-19T10:56:56;17.67;;;10.83;;
15486;SDS011;7845;53.698;10.078;2023-01-19T11:04:34;15.60;;;10.77;;
15486;SDS011;7845;53.698;10.078;2023-01-19T11:09:46;18.97;;;11.23;;
15486;SDS011;7845;53.698;10.078;2023-01-19T11:12:21;17.20;;;11.43;;
15486;SDS011;7845;53.698;10.078;2023-01-19T11:14:53;15.77;;;11.60;;
15486;SDS011;7845;53.698;10.078;2023-01-19T11:17:22;18.17;;;11.23;;
15486;SDS011;7845;53.698;10.078;2023-01-19T11:19:59;15.50;;;11.00;;
15486;SDS011;7845;53.698;10.078;2023-01-19T11:22:29;16.23;;;11.00;;
15486;SDS011;7845;53.698;10.078;2023-01-19T11:25:00;19.43;;;11.23;;
15486;SDS011;7845;53.698;10.078;2023-01-19T11:27:28;17.80;;;11.50;;
15486;SDS011;7845;53.698;10.078;2023-01-19T11:30:06;17.40;;;11.17;;
15486;SDS011;7845;53.698;10.078;2023-01-19T11:32:44;15.10;;;10.50;;
15486;SDS011;7845;53.698;10.078;2023-01-19T11:38:37;16.97;;;11.00;;
15486;SDS011;7845;53.698;10.078;2023-01-19T11:40:54;14.83;;;10.07;;
15486;SDS011;7845;53.698;10.078;2023-01-19T11:43:22;22.90;;;11.80;;
15486;SDS011;7845;53.698;10.078;2023-01-19T11:45:49;15.10;;;10.20;;
15486;SDS011;7845;53.698;10.078;2023-01-19T11:48:37;15.13;;;10.13;;
15486;SDS011;7845;53.698;10.078;2023-01-19T11:51:05;17.73;;;10.87;;
15486;SDS011;7845;53.698;10.078;2023-01-19T11:53:38;17.23;;;12.00;;
15486;SDS011;7845;53.698;10.078;2023-01-19T11:56:10;16.47;;;11.13;;
15486;SDS011;7845;53.698;10.078;2023-01-19T11:58:53;18.77;;;11.40;;
15486;SDS011;7845;53.698;10.078;2023-01-19T12:01:32;16.13;;;11.07;;
15486;SDS011;7845;53.698;10.078;2023-01-19T12:04:16;21.10;;;9.87;;
15486;SDS011;7845;53.698;10.078;2023-01-19T12:06:52;15.53;;;9.90;;
15486;SDS011;7845;53.698;10.078;2023-01-19T12:09:32;16.33;;;10.47;;
15486;SDS011;7845;53.698;10.078;2023-01-19T12:12:23;15.07;;;10.10;;
15486;SDS011;7845;53.698;10.078;2023-01-19T12:14:58;15.13;;;9.90;;
15486;SDS011;7845;53.698;10.078;2023-01-19T12:17:31;14.33;;;9.03;;
15486;SDS011;7845;53.698;10.078;2023-01-19T12:28:48;15.70;;;10.20;;
15486;SDS011;7845;53.698;10.078;2023-01-19T12:31:19;14.07;;;9.53;;
15486;SDS011;7845;53.698;10.078;2023-01-19T12:33:45;15.33;;;10.83;;
15486;SDS011;7845;53.698;10.078;2023-01-19T12:41:32;14.10;;;10.37;;
15486;SDS011;7845;53.698;10.078;2023-01-19T12:52:25;15.83;;;9.73;;
15486;SDS011;7845;53.698;10.078;2023-01-19T12:54:58;15.10;;;9.50;;
15486;SDS011;7845;53.698;10.078;2023-01-19T12:58:27;15.63;;;10.57;;
15486;SDS011;7845;53.698;10.078;2023-01-19T13:00:27;16.20;;;9.83;;
15486;SDS011;7845;53.698;10.078;2023-01-19T13:02:58;12.60;;;8.73;;
15486;SDS011;7845;53.698;10.078;2023-01-19T13:15:55;13.73;;;8.97;;
15486;SDS011;7845;53.698;10.078;2023-01-19T13:18:39;12.13;;;8.77;;
15486;SDS011;7845;53.698;10.078;2023-01-19T13:24:10;15.10;;;9.90;;
15486;SDS011;7845;53.698;10.078;2023-01-19T13:26:55;12.50;;;8.70;;
15486;SDS011;7845;53.698;10.078;2023-01-19T13:29:39;12.23;;;8.17;;
15486;SDS011;7845;53.698;10.078;2023-01-19T13:32:12;13.17;;;8.60;;
15486;SDS011;7845;53.698;10.078;2023-01-19T13:34:44;12.47;;;7.73;;
15486;SDS011;7845;53.698;10.078;2023-01-19T13:37:19;10.90;;;7.60;;
15486;SDS011;7845;53.698;10.078;2023-01-19T13:39:47;11.37;;;7.20;;
15486;SDS011;7845;53.698;10.078;2023-01-19T13:45:02;11.73;;;7.97;;
15486;SDS011;7845;53.698;10.078;2023-01-19T13:47:43;12.43;;;7.77;;
15486;SDS011;7845;53.698;10.078;2023-01-19T13:50:25;10.57;;;6.90;;
15486;SDS011;7845;53.698;10.078;2023-01-19T13:52:53;12.10;;;7.53;;
15486;SDS011;7845;53.698;10.078;2023-01-19T13:55:19;11.13;;;7.40;;
15486;SDS011;7845;53.698;10.078;2023-01-19T13:57:55;13.80;;;8.93;;
15486;SDS011;7845;53.698;10.078;2023-01-19T14:00:24;11.47;;;7.63;;
15486;SDS011;7845;53.698;10.078;2023-01-19T14:05:33;13.03;;;7.70;;
15486;SDS011;7845;53.698;10.078;2023-01-19T14:08:01;16.23;;;8.83;;
15486;SDS011;7845;53.698;10.078;2023-01-19T14:10:33;15.10;;;8.40;;
15486;SDS011;7845;53.698;10.078;2023-01-19T14:13:12;13.47;;;7.67;;
15486;SDS011;7845;53.698;10.078;2023-01-19T14:15:51;12.27;;;7.40;;
15486;SDS011;7845;53.698;10.078;2023-01-19T14:31:43;13.43;;;7.37;;
15486;SDS011;7845;53.698;10.078;2023-01-19T14:37:02;14.37;;;7.20;;
15486;SDS011;7845;53.698;10.078;2023-01-19T14:39:50;11.80;;;7.60;;
15486;SDS011;7845;53.698;10.078;2023-01-19T14:42:17;12.03;;;7.83;;
15486;SDS011;7845;53.698;10.078;2023-01-19T14:44:54;12.13;;;7.50;;
15486;SDS011;7845;53.698;10.078;2023-01-19T14:47:25;12.80;;;7.20;;
15486;SDS011;7845;53.698;10.078;2023-01-19T14:49:53;11.13;;;7.30;;
15486;SDS011;7845;53.698;10.078;2023-01-19T14:55:01;13.10;;;7.00;;
15486;SDS011;7845;53.698;10.078;2023-01-19T14:57:33;11.70;;;7.70;;
15486;SDS011;7845;53.698;10.078;2023-01-19T15:00:01;13.70;;;8.50;;
15486;SDS011;7845;53.698;10.078;2023-01-19T15:02:34;11.47;;;5.67;;
15486;SDS011;7845;53.698;10.078;2023-01-19T15:05:00;11.60;;;5.90;;
15486;SDS011;7845;53.698;10.078;2023-01-19T15:07:25;9.50;;;5.10;;
15486;SDS011;7845;53.698;10.078;2023-01-19T15:09:51;8.03;;;4.00;;
15486;SDS011;7845;53.698;10.078;2023-01-19T15:12:17;7.67;;;4.20;;
15486;SDS011;7845;53.698;10.078;2023-01-19T15:14:44;8.90;;;3.80;;
15486;SDS011;7845;53.698;10.078;2023-01-19T15:17:19;7.77;;;4.17;;
15486;SDS011;7845;53.698;10.078;2023-01-19T15:19:52;7.50;;;3.83;;
15486;SDS011;7845;53.698;10.078;2023-01-19T15:22:24;8.70;;;3.90;;
15486;SDS011;7845;53.698;10.078;2023-01-19T15:24:56;9.03;;;4.77;;
15486;SDS011;7845;53.698;10.078;2023-01-19T15:27:25;7.50;;;4.23;;
15486;SDS011;7845;53.698;10.078;2023-01-19T15:29:52;11.00;;;5.90;;
15486;SDS011;7845;53.698;10.078;2023-01-19T15:32:18;10.50;;;5.50;;
15486;SDS011;7845;53.698;10.078;2023-01-19T15:34:44;8.90;;;5.70;;
15486;SDS011;7845;53.698;10.078;2023-01-19T15:37:09;13.33;;;6.37;;
15486;SDS011;7845;53.698;10.078;2023-01-19T15:39:34;13.80;;;6.80;;
15486;SDS011;7845;53.698;10.078;2023-01-19T15:42:00;12.70;;;7.23;;
15486;SDS011;7845;53.698;10.078;2023-01-19T15:44:25;10.50;;;5.67;;
15486;SDS011;7845;53.698;10.078;2023-01-19T15:46:51;10.67;;;5.60;;
15486;SDS011;7845;53.698;10.078;2023-01-19T15:49:19;11.90;;;5.67;;
15486;SDS011;7845;53.698;10.078;2023-01-19T15:51:44;14.20;;;6.30;;
15486;SDS011;7845;53.698;10.078;2023-01-19T15:54:13;14.70;;;5.77;;
15486;SDS011;7845;53.698;10.078;2023-01-19T15:56:40;10.80;;;6.23;;
15486;SDS011;7845;53.698;10.078;2023-01-19T15:59:06;10.80;;;6.10;;
15486;SDS011;7845;53.698;10.078;2023-01-19T16:01:32;11.30;;;5.90;;
15486;SDS011;7845;53.698;10.078;2023-01-19T16:04:03;10.90;;;5.90;;
15486;SDS011;7845;53.698;10.078;2023-01-19T16:06:33;12.37;;;6.07;;
15486;SDS011;7845;53.698;10.078;2023-01-19T16:09:01;12.70;;;6.40;;
15486;SDS011;7845;53.698;10.078;2023-01-19T16:11:28;14.00;;;6.83;;
15486;SDS011;7845;53.698;10.078;2023-01-19T16:13:59;11.70;;;6.40;;
15486;SDS011;7845;53.698;10.078;2023-01-19T16:16:28;10.53;;;6.27;;
15486;SDS011;7845;53.698;10.078;2023-01-19T16:18:53;14.40;;;6.13;;
15486;SDS011;7845;53.698;10.078;2023-01-19T16:21:19;11.77;;;5.83;;
15486;SDS011;7845;53.698;10.078;2023-01-19T16:23:44;12.73;;;6.07;;
15486;SDS011;7845;53.698;10.078;2023-01-19T16:26:32;10.70;;;6.63;;